This is the latest recevied weather packets stored in our database for station/object W7TTE. If no packets are shown the sender has not sent any weather packets the latest 10 day(s).
| Time | Temp. | Humidity | Pressure | Rain* | Wind** | Luminosity | Snow |
|---|---|---|---|---|---|---|---|
| 1777389684 | 20° C | 30% | 1019 hPa | 0 mm | - | 328 W/m² | - |
| 1777389380 | 20.56° C | 29% | 1019.2 hPa | 0 mm | - | 313 W/m² | - |
| 1777389080 | 20° C | 29% | 1019.1 hPa | 0 mm | - | 296 W/m² | - |
| 1777388174 | 18.89° C | 30% | 1019.2 hPa | 0 mm | - | 252 W/m² | - |
| 1777387869 | 17.78° C | 31% | 1018.9 hPa | 0 mm | - | 237 W/m² | - |
| 1777386956 | 16.67° C | 34% | 1018.6 hPa | 0 mm | - | 192 W/m² | - |
| 1777386654 | 16.11° C | 33% | 1018.7 hPa | 0 mm | - | 177 W/m² | - |
| 1777386351 | 15.56° C | 34% | 1018.7 hPa | 0 mm | - | 163 W/m² | - |
| 1777386049 | 15° C | 34% | 1018.7 hPa | 0 mm | - | 150 W/m² | - |
| 1777385745 | 14.44° C | 36% | 1018.4 hPa | 0 mm | - | 137 W/m² | - |
| 1777385442 | 13.89° C | 38% | 1018.5 hPa | 0 mm | - | 124 W/m² | - |
| 1777384227 | 11.67° C | 41% | 1018.4 hPa | 0 mm | - | 36 W/m² | - |
| 1777383315 | 11.67° C | 39% | 1018.4 hPa | 0 mm | - | 30 W/m² | - |
| 1777383012 | 11.11° C | 42% | 1018.1 hPa | 0 mm | - | 28 W/m² | - |
| 1777382101 | 11.11° C | 45% | 1017.9 hPa | 0 mm | - | 21 W/m² | - |
| 1777381797 | 11.11° C | 48% | 1017.7 hPa | 0 mm | - | 17 W/m² | - |
| 1777381496 | 11.11° C | 46% | 1017.4 hPa | 0 mm | - | 15 W/m² | - |
| 1777381192 | 11.11° C | 45% | 1017.7 hPa | 0 mm | - | 11 W/m² | - |
| 1777380890 | 11.67° C | 45% | 1017.6 hPa | 0 mm | - | 8 W/m² | - |
| 1777379979 | 11.67° C | 43% | 1017.3 hPa | 0 mm | - | 1 W/m² | - |
| 1777379370 | 11.67° C | 43% | 1017.3 hPa | 0 mm | - | 0 W/m² | - |
| 1777378761 | 12.22° C | 43% | 1017.2 hPa | 0 mm | - | 0 W/m² | - |
| 1777378154 | 12.78° C | 41% | 1017.2 hPa | 0 mm | - | 0 W/m² | - |
| 1777377847 | 12.78° C | 41% | 1017 hPa | 0 mm | - | 0 W/m² | - |
| 1777377546 | 12.78° C | 40% | 1017.1 hPa | 0 mm | - | 0 W/m² | - |
* Rain latest hour (hover to see other rain measurements)
** Current wind speed in m/s (hover to see current wind gust speed)